sensor_id;sensor_type;location;lat;lon;timestamp;temperature;humidity
25450;DHT22;13371;52.080;5.624;2022-10-26T00:01:18;12.20;99.90
25450;DHT22;13371;52.080;5.624;2022-10-26T00:03:45;12.20;99.90
25450;DHT22;13371;52.080;5.624;2022-10-26T00:06:16;11.90;99.90
25450;DHT22;13371;52.080;5.624;2022-10-26T00:08:42;11.70;99.90
25450;DHT22;13371;52.080;5.624;2022-10-26T00:11:08;11.60;99.90
25450;DHT22;13371;52.080;5.624;2022-10-26T00:13:35;12.10;99.90
25450;DHT22;13371;52.080;5.624;2022-10-26T00:16:01;11.90;99.90
25450;DHT22;13371;52.080;5.624;2022-10-26T00:18:31;11.80;99.90
25450;DHT22;13371;52.080;5.624;2022-10-26T00:21:05;11.70;99.90
25450;DHT22;13371;52.080;5.624;2022-10-26T00:23:31;12.00;99.90
25450;DHT22;13371;52.080;5.624;2022-10-26T00:25:57;12.00;99.90
25450;DHT22;13371;52.080;5.624;2022-10-26T00:28:23;11.90;99.90
25450;DHT22;13371;52.080;5.624;2022-10-26T00:30:49;12.10;99.90
25450;DHT22;13371;52.080;5.624;2022-10-26T00:33:15;12.30;99.90
25450;DHT22;13371;52.080;5.624;2022-10-26T00:35:40;12.60;99.90
25450;DHT22;13371;52.080;5.624;2022-10-26T00:38:06;12.60;99.90
25450;DHT22;13371;52.080;5.624;2022-10-26T00:40:32;12.60;99.90
25450;DHT22;13371;52.080;5.624;2022-10-26T00:42:57;12.40;99.90
25450;DHT22;13371;52.080;5.624;2022-10-26T00:45:25;12.10;99.90
25450;DHT22;13371;52.080;5.624;2022-10-26T00:47:58;11.80;99.90
25450;DHT22;13371;52.080;5.624;2022-10-26T00:50:29;12.30;99.90
25450;DHT22;13371;52.080;5.624;2022-10-26T00:52:58;12.20;99.90
25450;DHT22;13371;52.080;5.624;2022-10-26T00:55:28;12.00;99.90
25450;DHT22;13371;52.080;5.624;2022-10-26T00:57:56;12.10;99.90
25450;DHT22;13371;52.080;5.624;2022-10-26T01:00:21;12.00;99.90
25450;DHT22;13371;52.080;5.624;2022-10-26T01:02:49;12.10;99.90
25450;DHT22;13371;52.080;5.624;2022-10-26T01:05:16;12.10;99.90
25450;DHT22;13371;52.080;5.624;2022-10-26T01:07:44;11.90;99.90
25450;DHT22;13371;52.080;5.624;2022-10-26T01:10:10;12.10;99.90
25450;DHT22;13371;52.080;5.624;2022-10-26T01:12:36;12.20;99.90
25450;DHT22;13371;52.080;5.624;2022-10-26T01:15:02;12.20;99.90
25450;DHT22;13371;52.080;5.624;2022-10-26T01:20:44;12.00;99.90
25450;DHT22;13371;52.080;5.624;2022-10-26T01:26:23;11.70;99.90
25450;DHT22;13371;52.080;5.624;2022-10-26T01:31:44;12.10;99.90
25450;DHT22;13371;52.080;5.624;2022-10-26T01:34:27;12.30;99.90
25450;DHT22;13371;52.080;5.624;2022-10-26T01:37:08;12.00;99.90
25450;DHT22;13371;52.080;5.624;2022-10-26T01:39:46;11.60;99.90
25450;DHT22;13371;52.080;5.624;2022-10-26T01:42:15;11.60;99.90
25450;DHT22;13371;52.080;5.624;2022-10-26T01:45:00;11.80;99.90
25450;DHT22;13371;52.080;5.624;2022-10-26T01:47:29;12.10;99.90
25450;DHT22;13371;52.080;5.624;2022-10-26T01:49:58;12.10;99.90
25450;DHT22;13371;52.080;5.624;2022-10-26T01:52:25;12.40;99.90
25450;DHT22;13371;52.080;5.624;2022-10-26T01:54:50;12.20;99.90
25450;DHT22;13371;52.080;5.624;2022-10-26T01:57:18;12.30;99.90
25450;DHT22;13371;52.080;5.624;2022-10-26T02:11:07;12.20;99.90
25450;DHT22;13371;52.080;5.624;2022-10-26T02:18:34;11.90;99.90
25450;DHT22;13371;52.080;5.624;2022-10-26T02:21:05;12.10;99.90
25450;DHT22;13371;52.080;5.624;2022-10-26T02:23:34;12.20;99.90
25450;DHT22;13371;52.080;5.624;2022-10-26T02:26:02;12.30;99.90
25450;DHT22;13371;52.080;5.624;2022-10-26T02:28:33;12.50;99.90
25450;DHT22;13371;52.080;5.624;2022-10-26T02:31:01;12.90;99.90
25450;DHT22;13371;52.080;5.624;2022-10-26T02:33:31;13.20;99.90
25450;DHT22;13371;52.080;5.624;2022-10-26T02:35:59;13.20;99.90
25450;DHT22;13371;52.080;5.624;2022-10-26T02:38:28;13.00;99.90
25450;DHT22;13371;52.080;5.624;2022-10-26T02:40:55;13.10;99.90
25450;DHT22;13371;52.080;5.624;2022-10-26T02:43:22;13.10;99.90
25450;DHT22;13371;52.080;5.624;2022-10-26T02:46:01;12.80;99.90
25450;DHT22;13371;52.080;5.624;2022-10-26T02:48:28;12.90;99.90
25450;DHT22;13371;52.080;5.624;2022-10-26T02:53:56;13.20;99.90
25450;DHT22;13371;52.080;5.624;2022-10-26T02:56:33;12.60;99.90
25450;DHT22;13371;52.080;5.624;2022-10-26T02:59:03;12.50;99.90
25450;DHT22;13371;52.080;5.624;2022-10-26T03:01:30;12.60;99.90
25450;DHT22;13371;52.080;5.624;2022-10-26T03:03:57;12.70;99.90
25450;DHT22;13371;52.080;5.624;2022-10-26T03:06:24;12.70;99.90
25450;DHT22;13371;52.080;5.624;2022-10-26T03:08:50;12.70;99.90
25450;DHT22;13371;52.080;5.624;2022-10-26T03:11:16;12.60;99.90
25450;DHT22;13371;52.080;5.624;2022-10-26T03:13:41;12.50;99.90
25450;DHT22;13371;52.080;5.624;2022-10-26T03:16:07;12.70;99.90
25450;DHT22;13371;52.080;5.624;2022-10-26T03:18:33;13.10;99.90
25450;DHT22;13371;52.080;5.624;2022-10-26T03:20:58;13.20;99.90
25450;DHT22;13371;52.080;5.624;2022-10-26T03:23:24;13.30;99.90
25450;DHT22;13371;52.080;5.624;2022-10-26T03:25:50;13.30;99.90
25450;DHT22;13371;52.080;5.624;2022-10-26T03:28:15;13.20;99.90
25450;DHT22;13371;52.080;5.624;2022-10-26T03:30:41;13.60;99.90
25450;DHT22;13371;52.080;5.624;2022-10-26T03:33:06;13.50;99.90
25450;DHT22;13371;52.080;5.624;2022-10-26T03:35:32;13.30;99.90
25450;DHT22;13371;52.080;5.624;2022-10-26T03:37:57;13.30;99.90
25450;DHT22;13371;52.080;5.624;2022-10-26T03:40:23;13.40;99.90
25450;DHT22;13371;52.080;5.624;2022-10-26T03:42:49;13.40;99.90
25450;DHT22;13371;52.080;5.624;2022-10-26T03:45:14;13.00;99.90
25450;DHT22;13371;52.080;5.624;2022-10-26T03:47:45;12.80;99.90
25450;DHT22;13371;52.080;5.624;2022-10-26T03:50:12;13.10;99.90
25450;DHT22;13371;52.080;5.624;2022-10-26T03:52:39;13.70;99.90
25450;DHT22;13371;52.080;5.624;2022-10-26T03:55:06;13.70;99.90
25450;DHT22;13371;52.080;5.624;2022-10-26T03:57:32;13.50;99.90
25450;DHT22;13371;52.080;5.624;2022-10-26T03:59:57;13.60;99.90
25450;DHT22;13371;52.080;5.624;2022-10-26T04:02:23;13.60;99.90
25450;DHT22;13371;52.080;5.624;2022-10-26T04:04:49;13.40;99.90
25450;DHT22;13371;52.080;5.624;2022-10-26T04:07:14;13.30;99.90
25450;DHT22;13371;52.080;5.624;2022-10-26T04:09:40;13.20;99.90
25450;DHT22;13371;52.080;5.624;2022-10-26T04:12:05;13.00;99.90
25450;DHT22;13371;52.080;5.624;2022-10-26T04:14:31;12.90;99.90
25450;DHT22;13371;52.080;5.624;2022-10-26T04:16:56;12.90;99.90
25450;DHT22;13371;52.080;5.624;2022-10-26T04:19:22;12.70;99.90
25450;DHT22;13371;52.080;5.624;2022-10-26T04:21:50;12.80;99.90
25450;DHT22;13371;52.080;5.624;2022-10-26T04:24:15;12.90;99.90
25450;DHT22;13371;52.080;5.624;2022-10-26T04:26:41;12.80;99.90
25450;DHT22;13371;52.080;5.624;2022-10-26T04:29:07;12.80;99.90
25450;DHT22;13371;52.080;5.624;2022-10-26T04:31:33;12.70;99.90
25450;DHT22;13371;52.080;5.624;2022-10-26T04:33:59;12.60;99.90
25450;DHT22;13371;52.080;5.624;2022-10-26T04:36:24;12.70;99.90
25450;DHT22;13371;52.080;5.624;2022-10-26T04:38:50;13.10;99.90
25450;DHT22;13371;52.080;5.624;2022-10-26T04:41:15;13.00;99.90
25450;DHT22;13371;52.080;5.624;2022-10-26T04:43:41;13.30;99.90
25450;DHT22;13371;52.080;5.624;2022-10-26T04:46:06;13.20;99.90
25450;DHT22;13371;52.080;5.624;2022-10-26T04:48:32;12.80;99.90
25450;DHT22;13371;52.080;5.624;2022-10-26T04:50:58;12.80;99.90
25450;DHT22;13371;52.080;5.624;2022-10-26T04:53:24;12.50;99.90
25450;DHT22;13371;52.080;5.624;2022-10-26T04:55:56;12.60;99.90
25450;DHT22;13371;52.080;5.624;2022-10-26T04:58:21;12.90;99.90
25450;DHT22;13371;52.080;5.624;2022-10-26T05:00:47;13.00;99.90
25450;DHT22;13371;52.080;5.624;2022-10-26T05:03:12;12.70;99.90
25450;DHT22;13371;52.080;5.624;2022-10-26T05:05:38;13.00;99.90
25450;DHT22;13371;52.080;5.624;2022-10-26T05:08:04;12.80;99.90
25450;DHT22;13371;52.080;5.624;2022-10-26T05:10:29;12.70;99.90
25450;DHT22;13371;52.080;5.624;2022-10-26T05:12:56;12.80;99.90
25450;DHT22;13371;52.080;5.624;2022-10-26T05:15:23;12.90;99.90
25450;DHT22;13371;52.080;5.624;2022-10-26T05:17:59;13.30;99.90
25450;DHT22;13371;52.080;5.624;2022-10-26T05:20:26;13.10;99.90
25450;DHT22;13371;52.080;5.624;2022-10-26T05:22:57;13.40;99.90
25450;DHT22;13371;52.080;5.624;2022-10-26T05:25:23;13.40;99.90
25450;DHT22;13371;52.080;5.624;2022-10-26T05:27:48;13.20;99.90
25450;DHT22;13371;52.080;5.624;2022-10-26T05:30:14;12.90;99.90
25450;DHT22;13371;52.080;5.624;2022-10-26T05:32:40;12.70;99.90
25450;DHT22;13371;52.080;5.624;2022-10-26T05:35:05;12.80;99.90
25450;DHT22;13371;52.080;5.624;2022-10-26T05:37:31;13.10;99.90
25450;DHT22;13371;52.080;5.624;2022-10-26T05:39:57;13.20;99.90
25450;DHT22;13371;52.080;5.624;2022-10-26T05:42:22;13.50;99.90
25450;DHT22;13371;52.080;5.624;2022-10-26T05:44:49;13.70;99.90
25450;DHT22;13371;52.080;5.624;2022-10-26T05:47:15;13.50;99.90
25450;DHT22;13371;52.080;5.624;2022-10-26T05:49:40;13.10;99.90
25450;DHT22;13371;52.080;5.624;2022-10-26T05:52:06;13.00;99.90
25450;DHT22;13371;52.080;5.624;2022-10-26T05:54:31;13.30;99.90
25450;DHT22;13371;52.080;5.624;2022-10-26T05:56:57;13.20;99.90
25450;DHT22;13371;52.080;5.624;2022-10-26T05:59:23;13.50;99.90
25450;DHT22;13371;52.080;5.624;2022-10-26T06:02:24;13.50;99.90
25450;DHT22;13371;52.080;5.624;2022-10-26T06:04:51;13.20;99.90
25450;DHT22;13371;52.080;5.624;2022-10-26T06:07:18;13.40;99.90
25450;DHT22;13371;52.080;5.624;2022-10-26T06:09:45;13.30;99.90
25450;DHT22;13371;52.080;5.624;2022-10-26T06:12:12;13.10;99.90
25450;DHT22;13371;52.080;5.624;2022-10-26T06:14:38;13.10;99.90
25450;DHT22;13371;52.080;5.624;2022-10-26T06:27:38;13.70;99.90
25450;DHT22;13371;52.080;5.624;2022-10-26T06:30:08;13.60;99.90
25450;DHT22;13371;52.080;5.624;2022-10-26T06:32:39;13.60;99.90
25450;DHT22;13371;52.080;5.624;2022-10-26T06:35:18;13.80;99.90
25450;DHT22;13371;52.080;5.624;2022-10-26T06:37:45;13.50;99.90
25450;DHT22;13371;52.080;5.624;2022-10-26T06:40:14;13.70;99.90
25450;DHT22;13371;52.080;5.624;2022-10-26T06:42:40;14.00;99.90
25450;DHT22;13371;52.080;5.624;2022-10-26T06:45:10;14.00;99.90
25450;DHT22;13371;52.080;5.624;2022-10-26T06:55:51;14.60;99.90
25450;DHT22;13371;52.080;5.624;2022-10-26T06:58:19;14.40;99.90
25450;DHT22;13371;52.080;5.624;2022-10-26T07:00:47;14.00;99.90
25450;DHT22;13371;52.080;5.624;2022-10-26T07:03:13;13.80;99.90
25450;DHT22;13371;52.080;5.624;2022-10-26T07:05:39;14.10;99.90
25450;DHT22;13371;52.080;5.624;2022-10-26T07:08:05;14.00;99.90
25450;DHT22;13371;52.080;5.624;2022-10-26T07:10:31;13.90;99.90
25450;DHT22;13371;52.080;5.624;2022-10-26T07:12:56;13.90;99.90
25450;DHT22;13371;52.080;5.624;2022-10-26T07:15:22;14.40;99.90
25450;DHT22;13371;52.080;5.624;2022-10-26T07:17:48;14.70;99.90
25450;DHT22;13371;52.080;5.624;2022-10-26T07:20:16;14.70;99.90
25450;DHT22;13371;52.080;5.624;2022-10-26T07:22:42;14.80;99.90
25450;DHT22;13371;52.080;5.624;2022-10-26T07:25:08;14.60;99.90
25450;DHT22;13371;52.080;5.624;2022-10-26T07:27:34;14.90;99.90
25450;DHT22;13371;52.080;5.624;2022-10-26T07:30:00;15.00;99.90
25450;DHT22;13371;52.080;5.624;2022-10-26T07:32:26;14.70;99.90
25450;DHT22;13371;52.080;5.624;2022-10-26T07:34:52;14.70;99.90
25450;DHT22;13371;52.080;5.624;2022-10-26T07:37:17;15.20;99.90
25450;DHT22;13371;52.080;5.624;2022-10-26T07:39:43;15.40;99.90
25450;DHT22;13371;52.080;5.624;2022-10-26T07:42:08;15.90;99.90
25450;DHT22;13371;52.080;5.624;2022-10-26T07:44:34;17.10;98.00
25450;DHT22;13371;52.080;5.624;2022-10-26T07:46:59;17.00;97.30
25450;DHT22;13371;52.080;5.624;2022-10-26T07:49:25;17.90;96.50
25450;DHT22;13371;52.080;5.624;2022-10-26T07:51:51;18.20;95.20
25450;DHT22;13371;52.080;5.624;2022-10-26T07:54:16;17.70;95.90
25450;DHT22;13371;52.080;5.624;2022-10-26T07:56:42;18.10;96.30
25450;DHT22;13371;52.080;5.624;2022-10-26T07:59:10;18.60;95.00
25450;DHT22;13371;52.080;5.624;2022-10-26T08:01:36;18.60;93.90
25450;DHT22;13371;52.080;5.624;2022-10-26T08:04:01;18.90;94.10
25450;DHT22;13371;52.080;5.624;2022-10-26T08:06:27;19.60;92.70
25450;DHT22;13371;52.080;5.624;2022-10-26T08:08:53;19.90;92.20
25450;DHT22;13371;52.080;5.624;2022-10-26T08:11:18;19.90;91.80
25450;DHT22;13371;52.080;5.624;2022-10-26T08:13:44;20.00;92.00
25450;DHT22;13371;52.080;5.624;2022-10-26T08:16:09;19.90;91.80
25450;DHT22;13371;52.080;5.624;2022-10-26T08:18:35;20.60;90.60
25450;DHT22;13371;52.080;5.624;2022-10-26T08:21:03;20.90;90.60
25450;DHT22;13371;52.080;5.624;2022-10-26T08:23:30;21.00;90.50
25450;DHT22;13371;52.080;5.624;2022-10-26T08:26:00;22.60;88.20
25450;DHT22;13371;52.080;5.624;2022-10-26T08:28:26;22.00;85.90
25450;DHT22;13371;52.080;5.624;2022-10-26T08:30:52;22.00;86.90
25450;DHT22;13371;52.080;5.624;2022-10-26T08:33:18;21.80;86.30
25450;DHT22;13371;52.080;5.624;2022-10-26T08:35:44;21.10;89.30
25450;DHT22;13371;52.080;5.624;2022-10-26T08:38:09;20.70;89.90
25450;DHT22;13371;52.080;5.624;2022-10-26T08:40:37;20.40;91.30
25450;DHT22;13371;52.080;5.624;2022-10-26T08:43:15;20.10;91.80
25450;DHT22;13371;52.080;5.624;2022-10-26T08:46:10;20.20;91.20
25450;DHT22;13371;52.080;5.624;2022-10-26T08:48:42;20.20;92.30
25450;DHT22;13371;52.080;5.624;2022-10-26T08:51:17;20.00;91.80
25450;DHT22;13371;52.080;5.624;2022-10-26T08:54:00;20.40;91.80
25450;DHT22;13371;52.080;5.624;2022-10-26T08:56:34;20.50;91.50
25450;DHT22;13371;52.080;5.624;2022-10-26T09:01:35;20.00;92.30
25450;DHT22;13371;52.080;5.624;2022-10-26T09:04:02;19.10;93.30
25450;DHT22;13371;52.080;5.624;2022-10-26T09:09:20;18.60;94.70
25450;DHT22;13371;52.080;5.624;2022-10-26T09:12:10;18.20;95.70
25450;DHT22;13371;52.080;5.624;2022-10-26T09:17:57;18.40;96.00
25450;DHT22;13371;52.080;5.624;2022-10-26T09:23:17;18.90;95.90
25450;DHT22;13371;52.080;5.624;2022-10-26T09:25:52;19.40;94.70
25450;DHT22;13371;52.080;5.624;2022-10-26T09:28:20;19.10;94.60
25450;DHT22;13371;52.080;5.624;2022-10-26T09:30:47;19.20;95.00
25450;DHT22;13371;52.080;5.624;2022-10-26T09:33:21;18.60;95.80
25450;DHT22;13371;52.080;5.624;2022-10-26T09:36:01;19.10;95.40
25450;DHT22;13371;52.080;5.624;2022-10-26T09:38:54;19.60;95.00
25450;DHT22;13371;52.080;5.624;2022-10-26T09:44:30;20.00;94.90
25450;DHT22;13371;52.080;5.624;2022-10-26T09:47:37;19.70;94.10
25450;DHT22;13371;52.080;5.624;2022-10-26T09:50:33;20.30;94.30
25450;DHT22;13371;52.080;5.624;2022-10-26T09:52:59;20.60;93.30
25450;DHT22;13371;52.080;5.624;2022-10-26T09:55:24;20.80;93.00
25450;DHT22;13371;52.080;5.624;2022-10-26T09:57:54;20.80;92.90
25450;DHT22;13371;52.080;5.624;2022-10-26T10:00:22;20.30;93.40
25450;DHT22;13371;52.080;5.624;2022-10-26T10:02:56;20.10;93.90
25450;DHT22;13371;52.080;5.624;2022-10-26T10:05:27;20.50;94.00
25450;DHT22;13371;52.080;5.624;2022-10-26T10:08:25;20.80;93.60
25450;DHT22;13371;52.080;5.624;2022-10-26T10:11:09;20.40;93.50
25450;DHT22;13371;52.080;5.624;2022-10-26T10:13:38;20.20;93.90
25450;DHT22;13371;52.080;5.624;2022-10-26T10:16:11;20.30;94.10
25450;DHT22;13371;52.080;5.624;2022-10-26T10:18:39;20.50;93.60
25450;DHT22;13371;52.080;5.624;2022-10-26T10:21:06;20.80;93.60
25450;DHT22;13371;52.080;5.624;2022-10-26T10:23:51;21.10;93.20
25450;DHT22;13371;52.080;5.624;2022-10-26T10:26:17;20.90;92.60
25450;DHT22;13371;52.080;5.624;2022-10-26T10:28:58;20.80;93.50
25450;DHT22;13371;52.080;5.624;2022-10-26T10:31:31;20.90;93.70
25450;DHT22;13371;52.080;5.624;2022-10-26T10:33:58;21.30;93.00
25450;DHT22;13371;52.080;5.624;2022-10-26T10:36:28;21.50;92.40
25450;DHT22;13371;52.080;5.624;2022-10-26T10:38:55;21.80;92.70
25450;DHT22;13371;52.080;5.624;2022-10-26T10:41:25;22.30;91.20
25450;DHT22;13371;52.080;5.624;2022-10-26T10:44:18;22.60;92.00
25450;DHT22;13371;52.080;5.624;2022-10-26T10:46:45;22.50;91.00
25450;DHT22;13371;52.080;5.624;2022-10-26T10:49:18;22.00;91.50
25450;DHT22;13371;52.080;5.624;2022-10-26T10:51:44;22.10;92.40
25450;DHT22;13371;52.080;5.624;2022-10-26T10:54:24;22.40;91.50
25450;DHT22;13371;52.080;5.624;2022-10-26T10:56:53;22.20;91.40
25450;DHT22;13371;52.080;5.624;2022-10-26T11:08:00;20.90;93.60
25450;DHT22;13371;52.080;5.624;2022-10-26T11:10:30;20.70;94.00
25450;DHT22;13371;52.080;5.624;2022-10-26T11:13:01;20.60;94.20
25450;DHT22;13371;52.080;5.624;2022-10-26T11:15:31;20.50;94.70
25450;DHT22;13371;52.080;5.624;2022-10-26T11:18:10;20.60;95.10
25450;DHT22;13371;52.080;5.624;2022-10-26T11:20:46;20.90;94.60
25450;DHT22;13371;52.080;5.624;2022-10-26T11:23:24;20.80;94.60
25450;DHT22;13371;52.080;5.624;2022-10-26T11:25:58;21.10;94.40
25450;DHT22;13371;52.080;5.624;2022-10-26T11:28:42;21.00;94.10
25450;DHT22;13371;52.080;5.624;2022-10-26T11:31:15;20.90;94.40
25450;DHT22;13371;52.080;5.624;2022-10-26T11:33:58;20.80;94.70
25450;DHT22;13371;52.080;5.624;2022-10-26T11:36:27;21.00;94.60
25450;DHT22;13371;52.080;5.624;2022-10-26T11:39:03;21.00;94.50
25450;DHT22;13371;52.080;5.624;2022-10-26T11:41:37;20.80;94.80
25450;DHT22;13371;52.080;5.624;2022-10-26T11:44:08;20.80;94.50
25450;DHT22;13371;52.080;5.624;2022-10-26T11:46:40;20.40;95.30
25450;DHT22;13371;52.080;5.624;2022-10-26T11:54:23;20.10;95.80
25450;DHT22;13371;52.080;5.624;2022-10-26T11:56:50;19.80;96.30
25450;DHT22;13371;52.080;5.624;2022-10-26T11:59:22;20.10;95.80
25450;DHT22;13371;52.080;5.624;2022-10-26T12:01:56;20.00;96.40
25450;DHT22;13371;52.080;5.624;2022-10-26T12:04:27;20.20;96.10
25450;DHT22;13371;52.080;5.624;2022-10-26T12:06:54;20.30;95.90
25450;DHT22;13371;52.080;5.624;2022-10-26T12:09:26;20.40;95.70
25450;DHT22;13371;52.080;5.624;2022-10-26T12:12:42;20.00;96.00
25450;DHT22;13371;52.080;5.624;2022-10-26T12:17:38;21.20;94.40
25450;DHT22;13371;52.080;5.624;2022-10-26T12:21:03;21.30;94.10
25450;DHT22;13371;52.080;5.624;2022-10-26T12:23:05;21.50;93.50
25450;DHT22;13371;52.080;5.624;2022-10-26T12:25:33;21.70;93.50
25450;DHT22;13371;52.080;5.624;2022-10-26T12:27:58;21.70;93.70
25450;DHT22;13371;52.080;5.624;2022-10-26T12:30:25;21.60;93.40
25450;DHT22;13371;52.080;5.624;2022-10-26T12:32:54;21.50;93.50
25450;DHT22;13371;52.080;5.624;2022-10-26T12:40:47;21.20;94.40
25450;DHT22;13371;52.080;5.624;2022-10-26T12:45:39;21.50;93.50
25450;DHT22;13371;52.080;5.624;2022-10-26T12:48:38;21.60;93.50
25450;DHT22;13371;52.080;5.624;2022-10-26T12:56:55;21.80;92.90
25450;DHT22;13371;52.080;5.624;2022-10-26T13:07:49;21.60;93.10
25450;DHT22;13371;52.080;5.624;2022-10-26T13:10:23;21.60;92.70
25450;DHT22;13371;52.080;5.624;2022-10-26T13:12:58;21.60;93.50
25450;DHT22;13371;52.080;5.624;2022-10-26T13:17:57;21.80;92.50
25450;DHT22;13371;52.080;5.624;2022-10-26T13:20:23;21.70;92.60
25450;DHT22;13371;52.080;5.624;2022-10-26T13:22:49;21.30;93.10
25450;DHT22;13371;52.080;5.624;2022-10-26T13:25:28;21.10;93.30
25450;DHT22;13371;52.080;5.624;2022-10-26T13:28:08;21.20;93.30
25450;DHT22;13371;52.080;5.624;2022-10-26T13:30:48;21.50;93.10
25450;DHT22;13371;52.080;5.624;2022-10-26T13:33:26;21.70;92.90
25450;DHT22;13371;52.080;5.624;2022-10-26T13:35:55;22.20;92.40
25450;DHT22;13371;52.080;5.624;2022-10-26T13:38:24;22.50;92.30
25450;DHT22;13371;52.080;5.624;2022-10-26T13:40:56;22.60;91.30
25450;DHT22;13371;52.080;5.624;2022-10-26T13:43:24;22.90;91.20
25450;DHT22;13371;52.080;5.624;2022-10-26T13:45:57;22.80;91.10
25450;DHT22;13371;52.080;5.624;2022-10-26T13:48:36;22.70;91.40
25450;DHT22;13371;52.080;5.624;2022-10-26T13:51:11;22.70;91.20
25450;DHT22;13371;52.080;5.624;2022-10-26T13:53:50;23.00;91.10
25450;DHT22;13371;52.080;5.624;2022-10-26T13:56:39;22.90;90.80
25450;DHT22;13371;52.080;5.624;2022-10-26T13:59:09;22.70;91.10
25450;DHT22;13371;52.080;5.624;2022-10-26T14:01:35;22.50;91.70
25450;DHT22;13371;52.080;5.624;2022-10-26T14:04:24;22.20;92.00
25450;DHT22;13371;52.080;5.624;2022-10-26T14:06:52;22.40;92.00
25450;DHT22;13371;52.080;5.624;2022-10-26T14:09:19;22.40;92.20
25450;DHT22;13371;52.080;5.624;2022-10-26T14:11:51;22.00;92.40
25450;DHT22;13371;52.080;5.624;2022-10-26T14:14:21;22.10;92.50
25450;DHT22;13371;52.080;5.624;2022-10-26T14:16:49;21.80;92.70
25450;DHT22;13371;52.080;5.624;2022-10-26T14:19:21;21.60;93.10
25450;DHT22;13371;52.080;5.624;2022-10-26T14:21:49;21.80;93.20
25450;DHT22;13371;52.080;5.624;2022-10-26T14:24:26;21.70;93.20
25450;DHT22;13371;52.080;5.624;2022-10-26T14:26:52;21.50;93.60
25450;DHT22;13371;52.080;5.624;2022-10-26T14:29:19;21.80;93.20
25450;DHT22;13371;52.080;5.624;2022-10-26T14:31:46;21.90;93.00
25450;DHT22;13371;52.080;5.624;2022-10-26T14:34:13;21.70;93.20
25450;DHT22;13371;52.080;5.624;2022-10-26T14:37:00;21.60;93.60
25450;DHT22;13371;52.080;5.624;2022-10-26T14:39:40;21.30;94.10
25450;DHT22;13371;52.080;5.624;2022-10-26T14:42:31;21.10;94.50
25450;DHT22;13371;52.080;5.624;2022-10-26T14:44:58;21.40;94.20
25450;DHT22;13371;52.080;5.624;2022-10-26T14:47:26;21.70;93.70
25450;DHT22;13371;52.080;5.624;2022-10-26T14:49:53;21.80;93.40
25450;DHT22;13371;52.080;5.624;2022-10-26T14:52:23;21.50;93.50
25450;DHT22;13371;52.080;5.624;2022-10-26T14:55:14;21.60;93.80
25450;DHT22;13371;52.080;5.624;2022-10-26T14:57:42;21.70;93.80
25450;DHT22;13371;52.080;5.624;2022-10-26T15:00:23;21.80;93.60
25450;DHT22;13371;52.080;5.624;2022-10-26T15:02:52;21.80;93.50
25450;DHT22;13371;52.080;5.624;2022-10-26T15:07:49;22.10;93.50
25450;DHT22;13371;52.080;5.624;2022-10-26T15:10:44;22.20;93.10
25450;DHT22;13371;52.080;5.624;2022-10-26T15:15:53;22.30;92.90
25450;DHT22;13371;52.080;5.624;2022-10-26T15:18:25;22.10;92.70
25450;DHT22;13371;52.080;5.624;2022-10-26T15:20:52;21.90;92.70
25450;DHT22;13371;52.080;5.624;2022-10-26T15:23:19;21.80;92.80
25450;DHT22;13371;52.080;5.624;2022-10-26T15:26:00;22.10;92.60
25450;DHT22;13371;52.080;5.624;2022-10-26T15:33:31;22.10;92.10
25450;DHT22;13371;52.080;5.624;2022-10-26T15:38:43;21.90;92.10
25450;DHT22;13371;52.080;5.624;2022-10-26T15:43:41;21.90;92.20
25450;DHT22;13371;52.080;5.624;2022-10-26T15:46:07;21.90;92.20
25450;DHT22;13371;52.080;5.624;2022-10-26T15:48:33;22.00;92.00
25450;DHT22;13371;52.080;5.624;2022-10-26T15:51:00;21.90;92.00
25450;DHT22;13371;52.080;5.624;2022-10-26T15:53:26;21.80;92.10
25450;DHT22;13371;52.080;5.624;2022-10-26T15:55:54;21.90;92.10
25450;DHT22;13371;52.080;5.624;2022-10-26T15:58:20;22.00;91.80
25450;DHT22;13371;52.080;5.624;2022-10-26T16:00:46;22.20;91.60
25450;DHT22;13371;52.080;5.624;2022-10-26T16:03:14;22.10;91.60
25450;DHT22;13371;52.080;5.624;2022-10-26T16:05:40;22.10;91.50
25450;DHT22;13371;52.080;5.624;2022-10-26T16:08:10;21.90;91.70
25450;DHT22;13371;52.080;5.624;2022-10-26T16:10:36;22.00;91.80
25450;DHT22;13371;52.080;5.624;2022-10-26T16:13:02;22.00;91.70
25450;DHT22;13371;52.080;5.624;2022-10-26T16:15:27;21.70;91.90
25450;DHT22;13371;52.080;5.624;2022-10-26T16:17:53;21.60;92.30
25450;DHT22;13371;52.080;5.624;2022-10-26T16:20:23;21.50;92.30
25450;DHT22;13371;52.080;5.624;2022-10-26T16:22:50;21.50;92.40
25450;DHT22;13371;52.080;5.624;2022-10-26T16:25:22;21.60;92.30
25450;DHT22;13371;52.080;5.624;2022-10-26T16:27:48;21.40;92.50
25450;DHT22;13371;52.080;5.624;2022-10-26T16:30:14;21.50;92.50
25450;DHT22;13371;52.080;5.624;2022-10-26T16:32:40;21.40;92.50
25450;DHT22;13371;52.080;5.624;2022-10-26T16:35:07;21.10;92.70
25450;DHT22;13371;52.080;5.624;2022-10-26T16:37:33;21.30;92.80
25450;DHT22;13371;52.080;5.624;2022-10-26T16:39:58;21.10;93.00
25450;DHT22;13371;52.080;5.624;2022-10-26T16:42:24;20.90;93.50
25450;DHT22;13371;52.080;5.624;2022-10-26T16:44:50;20.90;93.40
25450;DHT22;13371;52.080;5.624;2022-10-26T16:47:15;21.00;93.30
25450;DHT22;13371;52.080;5.624;2022-10-26T16:49:41;21.10;93.20
25450;DHT22;13371;52.080;5.624;2022-10-26T16:52:12;20.70;93.60
25450;DHT22;13371;52.080;5.624;2022-10-26T16:54:37;20.80;93.70
25450;DHT22;13371;52.080;5.624;2022-10-26T16:57:03;20.80;93.60
25450;DHT22;13371;52.080;5.624;2022-10-26T16:59:29;20.90;93.60
25450;DHT22;13371;52.080;5.624;2022-10-26T17:01:54;20.90;93.50
25450;DHT22;13371;52.080;5.624;2022-10-26T17:04:20;20.90;93.40
25450;DHT22;13371;52.080;5.624;2022-10-26T17:06:46;20.60;93.80
25450;DHT22;13371;52.080;5.624;2022-10-26T17:09:11;20.80;93.60
25450;DHT22;13371;52.080;5.624;2022-10-26T17:11:37;20.80;93.60
25450;DHT22;13371;52.080;5.624;2022-10-26T17:14:02;20.70;93.60
25450;DHT22;13371;52.080;5.624;2022-10-26T17:16:28;20.50;94.10
25450;DHT22;13371;52.080;5.624;2022-10-26T17:18:53;20.70;93.70
25450;DHT22;13371;52.080;5.624;2022-10-26T17:21:27;20.70;93.60
25450;DHT22;13371;52.080;5.624;2022-10-26T17:23:53;20.50;93.90
25450;DHT22;13371;52.080;5.624;2022-10-26T17:26:19;20.30;94.20
25450;DHT22;13371;52.080;5.624;2022-10-26T17:28:44;20.40;94.10
25450;DHT22;13371;52.080;5.624;2022-10-26T17:31:14;20.50;93.90
25450;DHT22;13371;52.080;5.624;2022-10-26T17:33:42;20.50;93.90
25450;DHT22;13371;52.080;5.624;2022-10-26T17:36:09;20.50;94.00
25450;DHT22;13371;52.080;5.624;2022-10-26T17:38:37;20.50;93.90
25450;DHT22;13371;52.080;5.624;2022-10-26T17:41:05;20.50;93.80
25450;DHT22;13371;52.080;5.624;2022-10-26T17:43:32;20.40;94.10